createdAt,value
2023-01-31T00:00:04.149Z,6.77
2023-01-31T00:01:27.564Z,6.58
2023-01-31T00:02:48.805Z,6.99
2023-01-31T00:04:10.884Z,6.94
2023-01-31T00:05:33.374Z,8.21
2023-01-31T00:06:54.663Z,8.62
2023-01-31T00:08:15.875Z,9.30
2023-01-31T00:09:37.322Z,9.86
2023-01-31T00:11:02.328Z,7.84
2023-01-31T00:12:23.440Z,7.07
2023-01-31T00:13:44.589Z,7.46
2023-01-31T00:15:07.067Z,6.87
2023-01-31T00:16:28.312Z,6.72
2023-01-31T00:17:49.406Z,7.44
2023-01-31T00:19:11.055Z,8.02
2023-01-31T00:20:32.495Z,7.05
2023-01-31T00:21:53.983Z,7.33
2023-01-31T00:24:24.460Z,7.38
2023-01-31T00:25:45.830Z,7.30
2023-01-31T00:27:07.475Z,7.50
2023-01-31T00:28:29.064Z,7.36
2023-01-31T00:29:50.317Z,7.87
2023-01-31T00:31:13.201Z,6.99
2023-01-31T00:32:34.986Z,7.53
2023-01-31T00:33:56.362Z,8.83
2023-01-31T00:35:21.204Z,7.29
2023-01-31T00:36:42.763Z,8.41
2023-01-31T00:38:04.045Z,7.77
2023-01-31T00:39:25.403Z,6.73
2023-01-31T00:40:53.297Z,7.50
2023-01-31T00:42:14.513Z,8.06
2023-01-31T00:43:35.718Z,6.76
2023-01-31T00:44:58.618Z,7.62
2023-01-31T00:46:19.869Z,9.46
2023-01-31T00:47:40.889Z,7.24
2023-01-31T00:49:02.032Z,8.56
2023-01-31T00:50:23.616Z,8.53
2023-01-31T00:51:44.958Z,8.36
2023-01-31T00:53:06.331Z,8.24
2023-01-31T00:54:27.295Z,8.11
2023-01-31T00:57:01.043Z,7.80
2023-01-31T00:58:22.570Z,7.86
2023-01-31T00:59:44.053Z,7.72
2023-01-31T01:01:13.649Z,7.46
2023-01-31T01:02:35.706Z,7.67
2023-01-31T01:03:56.997Z,7.36
2023-01-31T01:05:19.089Z,8.13
2023-01-31T01:06:40.908Z,7.44
2023-01-31T01:08:02.013Z,9.18
2023-01-31T01:09:22.954Z,8.14
2023-01-31T01:10:44.587Z,7.60
2023-01-31T01:12:05.757Z,7.87
2023-01-31T01:13:27.335Z,7.94
2023-01-31T01:14:48.560Z,9.13
2023-01-31T01:17:22.989Z,8.12
2023-01-31T01:18:45.047Z,8.38
2023-01-31T01:20:07.808Z,7.68
2023-01-31T01:21:31.230Z,6.72
2023-01-31T01:22:52.495Z,7.49
2023-01-31T01:24:22.832Z,7.07
2023-01-31T01:25:44.486Z,7.01
2023-01-31T01:27:05.912Z,6.78
2023-01-31T01:28:29.000Z,7.87
2023-01-31T01:29:50.023Z,6.66
2023-01-31T01:31:12.024Z,8.41
2023-01-31T01:32:33.936Z,7.03
2023-01-31T01:33:56.452Z,9.57
2023-01-31T01:35:17.668Z,6.38
2023-01-31T01:36:39.746Z,7.60
2023-01-31T01:38:01.964Z,7.56
2023-01-31T01:39:23.650Z,7.06
2023-01-31T01:40:44.926Z,7.38
2023-01-31T01:42:08.230Z,6.85
2023-01-31T01:43:44.332Z,8.86
2023-01-31T01:46:31.735Z,7.90
2023-01-31T01:47:54.609Z,6.43
2023-01-31T01:49:21.855Z,9.05
2023-01-31T01:50:47.749Z,7.63
2023-01-31T01:52:09.082Z,8.27
2023-01-31T01:53:30.808Z,8.27
2023-01-31T01:54:55.254Z,7.76
2023-01-31T01:56:19.479Z,8.01
2023-01-31T01:57:41.722Z,7.37
2023-01-31T01:59:06.646Z,7.86
2023-01-31T02:00:28.749Z,7.02
2023-01-31T02:01:50.095Z,9.16
2023-01-31T02:03:11.471Z,8.91
2023-01-31T02:04:36.075Z,7.69
2023-01-31T02:05:59.060Z,8.58
2023-01-31T02:08:41.523Z,7.93
2023-01-31T02:11:22.887Z,7.42
2023-01-31T02:12:44.287Z,8.33
2023-01-31T02:14:08.199Z,7.64
2023-01-31T02:15:29.511Z,7.65
2023-01-31T02:16:50.952Z,8.64
2023-01-31T02:18:11.935Z,8.78
2023-01-31T02:19:37.219Z,7.21
2023-01-31T02:21:27.860Z,8.16
2023-01-31T02:23:12.121Z,7.87
2023-01-31T02:24:52.190Z,6.09
2023-01-31T02:26:43.765Z,6.61
2023-01-31T02:28:17.602Z,7.29
2023-01-31T02:31:22.945Z,8.34
2023-01-31T02:33:23.900Z,8.96
2023-01-31T02:34:49.352Z,7.99
2023-01-31T02:36:29.635Z,12.94
2023-01-31T02:38:29.009Z,7.76
2023-01-31T02:40:27.657Z,7.42
2023-01-31T02:41:55.416Z,7.87
2023-01-31T02:45:16.104Z,7.88
2023-01-31T02:47:01.504Z,6.62
2023-01-31T02:48:38.114Z,7.46
2023-01-31T02:50:24.553Z,7.76
2023-01-31T02:51:46.084Z,6.55
2023-01-31T02:53:35.847Z,8.54
2023-01-31T02:55:06.746Z,7.73
2023-01-31T02:56:33.305Z,7.84
2023-01-31T02:57:55.442Z,8.09
2023-01-31T02:59:22.220Z,9.17
2023-01-31T03:00:45.576Z,6.74
2023-01-31T03:02:06.965Z,7.36
2023-01-31T03:03:29.532Z,6.72
2023-01-31T03:04:51.096Z,7.57
2023-01-31T03:06:19.981Z,7.21
2023-01-31T03:07:42.903Z,7.08
2023-01-31T03:09:18.451Z,7.27
2023-01-31T03:10:49.932Z,6.86
2023-01-31T03:12:31.083Z,7.87
2023-01-31T03:13:56.247Z,7.75
2023-01-31T03:15:36.320Z,7.97
2023-01-31T03:18:28.248Z,6.21
2023-01-31T03:19:56.010Z,7.68
2023-01-31T03:21:20.747Z,8.36
2023-01-31T03:24:00.646Z,7.19
2023-01-31T03:25:24.804Z,7.37
2023-01-31T03:26:46.380Z,7.22
2023-01-31T03:29:20.091Z,6.77
2023-01-31T03:30:51.203Z,7.10
2023-01-31T03:32:22.296Z,7.21
2023-01-31T03:33:49.148Z,7.62
2023-01-31T03:35:10.322Z,7.82
2023-01-31T03:36:51.919Z,6.86
2023-01-31T03:39:42.912Z,7.24
2023-01-31T03:41:17.367Z,6.74
2023-01-31T03:42:57.956Z,7.55
2023-01-31T03:44:25.676Z,9.92
2023-01-31T03:45:52.762Z,9.78
2023-01-31T03:47:20.525Z,7.79
2023-01-31T03:48:42.892Z,7.95
2023-01-31T03:51:22.465Z,7.71
2023-01-31T03:54:08.048Z,6.20
2023-01-31T03:57:06.164Z,7.36
2023-01-31T03:58:29.565Z,6.90
2023-01-31T03:59:51.973Z,8.11
2023-01-31T04:01:13.755Z,6.69
2023-01-31T04:02:36.044Z,6.12
2023-01-31T04:03:58.882Z,7.39
2023-01-31T04:06:32.477Z,7.59
2023-01-31T04:07:53.935Z,7.16
2023-01-31T04:09:15.368Z,8.30
2023-01-31T04:10:36.919Z,7.82
2023-01-31T04:12:01.395Z,8.42
2023-01-31T04:13:22.819Z,7.93
2023-01-31T04:14:44.461Z,7.08
2023-01-31T04:16:06.581Z,7.61
2023-01-31T04:17:27.832Z,8.18
2023-01-31T04:18:48.813Z,7.31
2023-01-31T04:20:10.976Z,8.13
2023-01-31T04:21:32.389Z,8.17
2023-01-31T04:22:53.838Z,8.47
2023-01-31T04:24:15.587Z,7.21
2023-01-31T04:25:36.646Z,8.06
2023-01-31T04:26:58.333Z,8.24
2023-01-31T04:28:19.908Z,7.92
2023-01-31T04:29:41.307Z,7.63
2023-01-31T04:31:02.778Z,6.94
2023-01-31T04:32:24.096Z,8.39
2023-01-31T04:33:47.439Z,8.38
2023-01-31T04:36:32.037Z,8.18
2023-01-31T04:37:53.518Z,8.21
2023-01-31T04:39:15.039Z,7.99
2023-01-31T04:40:36.649Z,6.49
2023-01-31T04:41:57.941Z,11.06
2023-01-31T04:43:19.392Z,7.59
2023-01-31T04:44:43.631Z,7.74
2023-01-31T04:46:05.111Z,7.21
2023-01-31T04:47:26.254Z,6.94
2023-01-31T04:48:48.213Z,6.74
2023-01-31T04:50:11.543Z,7.69
2023-01-31T04:51:33.735Z,7.67
2023-01-31T04:52:55.011Z,6.72
2023-01-31T04:54:16.157Z,6.92
2023-01-31T04:55:37.805Z,7.47
2023-01-31T04:56:59.241Z,7.73
2023-01-31T04:58:20.530Z,6.48
2023-01-31T04:59:41.696Z,7.08
2023-01-31T05:01:03.746Z,8.79
2023-01-31T05:02:25.327Z,6.83
2023-01-31T05:03:46.646Z,8.09
2023-01-31T05:05:09.402Z,7.47
2023-01-31T05:06:30.546Z,7.84
2023-01-31T05:07:52.118Z,6.48
2023-01-31T05:09:13.358Z,7.45
2023-01-31T05:10:34.689Z,6.67
2023-01-31T05:11:55.772Z,7.23
2023-01-31T05:13:17.368Z,10.46
2023-01-31T05:14:38.896Z,7.68
2023-01-31T05:15:59.915Z,8.53
2023-01-31T05:17:22.818Z,8.01
2023-01-31T05:20:06.592Z,6.36
2023-01-31T05:21:27.867Z,7.56
2023-01-31T05:22:49.318Z,9.62
2023-01-31T05:24:10.604Z,8.80
2023-01-31T05:25:32.370Z,7.04
2023-01-31T05:26:54.512Z,6.44
2023-01-31T05:28:15.413Z,7.17
2023-01-31T05:29:37.061Z,7.32
2023-01-31T05:31:04.223Z,7.64
2023-01-31T05:32:25.850Z,6.76
2023-01-31T05:33:46.973Z,7.08
2023-01-31T05:35:08.556Z,6.82
2023-01-31T05:36:30.103Z,7.82
2023-01-31T05:37:53.429Z,7.35
2023-01-31T05:40:35.922Z,10.89
2023-01-31T05:41:57.003Z,17.57
2023-01-31T05:43:18.146Z,17.55
2023-01-31T05:44:39.265Z,15.94
2023-01-31T05:46:01.329Z,18.04
2023-01-31T05:47:22.777Z,9.67
2023-01-31T05:48:44.174Z,8.80
2023-01-31T05:50:06.765Z,8.19
2023-01-31T05:51:28.135Z,7.76
2023-01-31T05:52:54.230Z,8.53
2023-01-31T05:54:15.504Z,6.63
2023-01-31T05:55:36.976Z,7.54
2023-01-31T05:56:58.734Z,6.36
2023-01-31T05:58:19.905Z,6.18
2023-01-31T05:59:41.634Z,7.26
2023-01-31T06:01:03.187Z,6.08
2023-01-31T06:02:25.049Z,6.80
2023-01-31T06:03:46.555Z,7.52
2023-01-31T06:05:08.391Z,7.76
2023-01-31T06:06:30.040Z,6.46
2023-01-31T06:07:51.536Z,6.29
2023-01-31T06:09:12.852Z,7.33
2023-01-31T06:10:34.449Z,7.28
2023-01-31T06:11:55.795Z,7.29
2023-01-31T06:13:16.862Z,7.28
2023-01-31T06:14:38.253Z,8.33
2023-01-31T06:15:59.747Z,8.25
2023-01-31T06:17:20.851Z,7.24
2023-01-31T06:18:42.006Z,6.59
2023-01-31T06:20:04.216Z,5.92
2023-01-31T06:21:25.473Z,5.11
2023-01-31T06:22:46.974Z,7.44
2023-01-31T06:24:08.994Z,5.95
2023-01-31T06:25:31.972Z,6.62
2023-01-31T06:26:53.597Z,6.62
2023-01-31T06:28:14.827Z,5.78
2023-01-31T06:29:35.865Z,5.95
2023-01-31T06:30:57.948Z,5.65
2023-01-31T06:32:19.059Z,5.31
2023-01-31T06:33:46.797Z,5.59
2023-01-31T06:36:25.038Z,6.74
2023-01-31T06:37:46.482Z,6.17
2023-01-31T06:39:09.447Z,6.17
2023-01-31T06:41:52.579Z,6.94
2023-01-31T06:43:14.094Z,5.77
2023-01-31T06:44:35.691Z,6.87
2023-01-31T06:45:57.548Z,5.52
2023-01-31T06:47:18.631Z,6.37
2023-01-31T06:48:40.444Z,6.03
2023-01-31T06:50:01.740Z,6.45
2023-01-31T06:51:22.818Z,6.81
2023-01-31T06:52:44.119Z,6.83
2023-01-31T06:54:05.724Z,6.52
2023-01-31T06:55:27.113Z,6.93
2023-01-31T06:56:49.322Z,5.09
2023-01-31T06:58:10.819Z,6.50
2023-01-31T06:59:32.675Z,8.76
2023-01-31T07:00:54.865Z,5.58
2023-01-31T07:02:16.337Z,6.98
2023-01-31T07:03:37.843Z,7.64
2023-01-31T07:04:59.296Z,6.08
2023-01-31T07:06:20.619Z,6.47
2023-01-31T07:07:41.830Z,5.93
2023-01-31T07:09:03.277Z,6.18
2023-01-31T07:10:24.993Z,6.26
2023-01-31T07:11:46.357Z,7.23
2023-01-31T07:13:08.021Z,6.42
2023-01-31T07:14:29.174Z,6.28
2023-01-31T07:15:50.544Z,5.87
2023-01-31T07:17:13.882Z,7.37
2023-01-31T07:18:35.099Z,7.33
2023-01-31T07:19:56.275Z,7.37
2023-01-31T07:21:18.758Z,7.53
2023-01-31T07:22:40.131Z,7.90
2023-01-31T07:24:01.954Z,6.37
2023-01-31T07:25:25.777Z,7.65
2023-01-31T07:26:47.286Z,6.43
2023-01-31T07:28:13.521Z,8.29
2023-01-31T07:29:36.837Z,7.18
2023-01-31T07:33:08.127Z,8.36
2023-01-31T07:34:31.228Z,7.55
2023-01-31T07:37:16.996Z,6.70
2023-01-31T07:38:38.507Z,9.08
2023-01-31T07:40:01.771Z,17.01
2023-01-31T07:41:24.227Z,8.06
2023-01-31T07:42:45.809Z,10.97
2023-01-31T07:44:07.263Z,9.37
2023-01-31T07:45:28.825Z,10.72
2023-01-31T07:46:50.252Z,8.51
2023-01-31T07:48:11.665Z,7.12
2023-01-31T07:49:33.188Z,7.11
2023-01-31T07:50:58.976Z,7.08
2023-01-31T07:52:20.203Z,5.96
2023-01-31T07:53:42.076Z,5.16
2023-01-31T07:55:06.262Z,7.54
2023-01-31T07:56:28.562Z,6.33
2023-01-31T07:57:50.139Z,6.62
2023-01-31T07:59:11.587Z,7.27
2023-01-31T08:00:34.841Z,6.12
2023-01-31T08:01:56.297Z,6.53
2023-01-31T08:03:23.763Z,7.23
2023-01-31T08:04:45.620Z,6.25
2023-01-31T08:06:08.674Z,4.58
2023-01-31T08:07:30.678Z,6.20
2023-01-31T08:08:52.261Z,5.94
2023-01-31T08:10:13.402Z,6.37
2023-01-31T08:11:35.115Z,7.57
2023-01-31T08:12:56.350Z,6.77
2023-01-31T08:14:17.918Z,7.43
2023-01-31T08:15:40.376Z,6.40
2023-01-31T08:17:01.821Z,5.66
2023-01-31T08:18:23.557Z,5.90
2023-01-31T08:19:45.187Z,8.09
2023-01-31T08:21:06.602Z,6.88
2023-01-31T08:22:27.611Z,6.37
2023-01-31T08:23:48.979Z,6.19
2023-01-31T08:25:10.650Z,6.27
2023-01-31T08:26:32.021Z,6.63
2023-01-31T08:27:53.122Z,5.41
2023-01-31T08:29:14.510Z,7.78
2023-01-31T08:30:41.303Z,6.11
2023-01-31T08:32:02.752Z,6.13
2023-01-31T08:33:24.374Z,6.42
2023-01-31T08:34:45.687Z,6.52
2023-01-31T08:36:17.857Z,7.73
2023-01-31T08:37:39.298Z,6.62
2023-01-31T08:39:00.973Z,6.29
2023-01-31T08:40:22.728Z,6.74
2023-01-31T08:41:44.035Z,6.89
2023-01-31T08:43:05.605Z,6.78
2023-01-31T08:44:27.134Z,6.77
2023-01-31T08:45:48.538Z,5.78
2023-01-31T08:47:09.895Z,6.23
2023-01-31T08:48:32.775Z,5.28
2023-01-31T08:49:54.068Z,7.80
2023-01-31T08:51:15.625Z,6.01
2023-01-31T08:52:36.844Z,6.97
2023-01-31T08:53:58.118Z,7.11
2023-01-31T08:55:19.564Z,6.26
2023-01-31T08:56:41.610Z,7.04
2023-01-31T08:58:04.279Z,5.69
2023-01-31T08:59:25.577Z,5.94
2023-01-31T09:00:47.305Z,6.94
2023-01-31T09:02:10.676Z,6.11
2023-01-31T09:03:34.943Z,6.95
2023-01-31T09:04:56.606Z,5.40
2023-01-31T09:06:20.607Z,6.67
2023-01-31T09:07:42.080Z,5.43
2023-01-31T09:09:03.449Z,5.79
2023-01-31T09:10:25.065Z,6.39
2023-01-31T09:11:47.079Z,5.72
2023-01-31T09:14:22.928Z,6.06
2023-01-31T09:15:45.917Z,6.46
2023-01-31T09:17:08.287Z,5.54
2023-01-31T09:18:30.175Z,6.72
2023-01-31T09:19:51.303Z,5.10
2023-01-31T09:21:16.668Z,5.88
2023-01-31T09:22:39.586Z,5.63
2023-01-31T09:24:02.607Z,6.47
2023-01-31T09:26:47.532Z,6.12
2023-01-31T09:28:08.757Z,5.47
2023-01-31T09:29:29.917Z,6.83
2023-01-31T09:30:51.555Z,5.48
2023-01-31T09:32:15.517Z,6.42
2023-01-31T09:33:37.197Z,5.58
2023-01-31T09:34:59.189Z,5.32
2023-01-31T09:36:22.283Z,6.14
2023-01-31T09:37:43.924Z,4.71
2023-01-31T09:39:05.227Z,5.37
2023-01-31T09:40:28.372Z,5.69
2023-01-31T09:41:52.665Z,5.54
2023-01-31T09:43:14.006Z,5.06
2023-01-31T09:44:38.610Z,6.63
2023-01-31T09:46:02.118Z,5.98
2023-01-31T09:48:38.334Z,7.34
2023-01-31T09:50:11.111Z,5.62
2023-01-31T09:51:33.513Z,6.12
2023-01-31T09:52:55.050Z,5.22
2023-01-31T09:54:23.559Z,7.62
2023-01-31T09:55:54.424Z,6.79
2023-01-31T09:57:28.451Z,6.96
2023-01-31T09:59:09.700Z,5.65
2023-01-31T10:01:58.993Z,7.38
2023-01-31T10:03:26.124Z,8.58
2023-01-31T10:05:02.931Z,7.06
2023-01-31T10:06:31.073Z,5.59
2023-01-31T10:08:05.698Z,6.02
2023-01-31T10:10:58.799Z,6.90
2023-01-31T10:12:24.514Z,5.54
2023-01-31T10:15:12.120Z,6.32
2023-01-31T10:16:41.003Z,7.38
2023-01-31T10:20:56.339Z,6.63
2023-01-31T10:34:16.525Z,4.87
2023-01-31T10:38:58.765Z,5.91
2023-01-31T10:40:33.498Z,5.92
2023-01-31T10:45:18.472Z,5.50
2023-01-31T10:46:40.477Z,7.53
2023-01-31T10:49:48.808Z,7.02
2023-01-31T10:51:26.068Z,5.03
2023-01-31T10:53:10.854Z,7.79
2023-01-31T10:54:38.905Z,6.75
2023-01-31T10:56:12.063Z,5.69
2023-01-31T10:57:33.770Z,5.82
2023-01-31T10:58:55.656Z,6.87
2023-01-31T11:01:39.128Z,6.45
2023-01-31T11:03:00.487Z,8.52
2023-01-31T11:04:24.909Z,5.65
2023-01-31T11:07:05.218Z,6.01
2023-01-31T11:08:51.166Z,5.49
2023-01-31T11:10:28.340Z,7.24
2023-01-31T11:13:18.481Z,7.64
2023-01-31T11:16:01.833Z,7.22
2023-01-31T11:17:22.972Z,8.01
2023-01-31T11:18:47.061Z,7.27
2023-01-31T11:20:21.708Z,5.58
2023-01-31T11:21:46.301Z,6.38
2023-01-31T11:23:07.363Z,6.06
2023-01-31T11:24:31.179Z,5.71
2023-01-31T11:25:53.171Z,8.79
2023-01-31T11:28:39.416Z,7.03
2023-01-31T11:30:00.791Z,5.77
2023-01-31T11:44:18.160Z,5.66
2023-01-31T11:45:45.181Z,7.43
2023-01-31T11:49:40.245Z,7.46
2023-01-31T11:51:01.520Z,6.78
2023-01-31T11:52:28.557Z,5.52
2023-01-31T11:53:50.170Z,7.76
2023-01-31T11:55:16.435Z,8.07
2023-01-31T11:56:38.579Z,6.83
2023-01-31T11:57:59.937Z,5.49
2023-01-31T12:00:32.335Z,9.54
2023-01-31T12:01:55.438Z,9.11
2023-01-31T12:03:17.010Z,8.71
2023-01-31T12:04:40.197Z,6.63
2023-01-31T12:06:10.274Z,7.33
2023-01-31T12:07:33.860Z,8.88
2023-01-31T12:08:56.303Z,8.12
2023-01-31T12:10:29.999Z,7.03
2023-01-31T12:14:39.479Z,7.08
2023-01-31T12:16:02.071Z,5.98
2023-01-31T12:17:25.430Z,6.93
2023-01-31T12:19:09.789Z,8.71
2023-01-31T12:20:44.603Z,7.36
2023-01-31T12:22:21.881Z,6.62
2023-01-31T12:23:50.751Z,6.57
2023-01-31T12:25:34.286Z,7.65
2023-01-31T12:27:00.796Z,9.22
2023-01-31T12:30:05.024Z,9.11
2023-01-31T12:31:49.743Z,8.53
2023-01-31T12:33:24.592Z,7.16
2023-01-31T12:35:09.827Z,10.63
2023-01-31T12:37:59.413Z,7.14
2023-01-31T12:39:35.183Z,7.18
2023-01-31T12:41:03.701Z,7.97
2023-01-31T12:42:34.280Z,6.42
2023-01-31T12:44:05.089Z,7.94
2023-01-31T12:45:37.641Z,8.93
2023-01-31T12:47:10.888Z,8.19
2023-01-31T12:48:32.075Z,9.82
2023-01-31T12:51:39.006Z,8.64
2023-01-31T12:53:19.252Z,9.57
2023-01-31T12:54:49.798Z,10.89
2023-01-31T12:56:34.323Z,8.97
2023-01-31T12:58:33.422Z,7.94
2023-01-31T13:00:31.807Z,8.58
2023-01-31T13:02:09.217Z,6.96
2023-01-31T13:03:39.869Z,8.03
2023-01-31T13:05:14.317Z,9.04
2023-01-31T13:08:15.608Z,10.06
2023-01-31T13:09:37.098Z,7.94
2023-01-31T13:12:31.033Z,10.71
2023-01-31T13:15:25.136Z,10.47
2023-01-31T13:16:48.022Z,8.66
2023-01-31T13:18:09.463Z,8.18
2023-01-31T13:19:40.779Z,8.31
2023-01-31T13:21:03.950Z,7.97
2023-01-31T13:22:31.526Z,8.26
2023-01-31T13:25:38.531Z,5.66
2023-01-31T13:27:03.868Z,9.26
2023-01-31T13:28:27.809Z,9.85
2023-01-31T13:29:54.644Z,8.97
2023-01-31T13:32:45.776Z,10.22
2023-01-31T13:34:11.744Z,10.32
2023-01-31T13:38:12.988Z,8.06
2023-01-31T13:40:55.771Z,6.63
2023-01-31T13:42:16.966Z,6.77
2023-01-31T13:43:38.750Z,8.65
2023-01-31T13:46:20.905Z,10.39
2023-01-31T13:49:37.869Z,7.91
2023-01-31T13:51:19.917Z,6.76
2023-01-31T13:52:51.594Z,6.58
2023-01-31T13:54:32.683Z,6.42
2023-01-31T13:55:54.084Z,7.34
2023-01-31T13:58:43.676Z,7.14
2023-01-31T14:01:30.432Z,7.53
2023-01-31T14:04:22.827Z,8.19
2023-01-31T14:05:56.041Z,6.32
2023-01-31T14:07:19.030Z,7.19
2023-01-31T14:08:55.143Z,6.58
2023-01-31T14:11:34.055Z,6.72
2023-01-31T14:13:15.759Z,7.22
2023-01-31T14:14:39.022Z,7.39
2023-01-31T14:16:00.226Z,7.79
2023-01-31T14:17:25.498Z,9.78
2023-01-31T14:18:46.829Z,7.59
2023-01-31T14:22:03.196Z,7.31
2023-01-31T14:23:33.746Z,8.28
2023-01-31T14:24:56.619Z,7.26
2023-01-31T14:26:36.938Z,7.46
2023-01-31T14:28:02.671Z,6.34
2023-01-31T14:29:30.763Z,8.10
2023-01-31T14:30:52.167Z,7.74
2023-01-31T14:32:15.787Z,9.37
2023-01-31T14:33:37.618Z,7.68
2023-01-31T14:34:58.715Z,7.18
2023-01-31T14:36:40.686Z,8.44
2023-01-31T14:38:22.393Z,10.81
2023-01-31T14:39:54.509Z,7.53
2023-01-31T14:43:22.977Z,6.09
2023-01-31T14:45:07.418Z,6.88
2023-01-31T14:46:38.863Z,7.57
2023-01-31T14:48:08.817Z,5.88
2023-01-31T14:51:08.948Z,6.88
2023-01-31T14:53:05.763Z,8.51
2023-01-31T14:54:33.727Z,8.17
2023-01-31T14:56:07.735Z,8.44
2023-01-31T14:58:44.266Z,7.69
2023-01-31T15:00:20.573Z,7.22
2023-01-31T15:01:41.899Z,7.84
2023-01-31T15:03:23.413Z,6.51
2023-01-31T15:04:48.802Z,8.25
2023-01-31T15:07:31.100Z,6.68
2023-01-31T15:09:22.235Z,6.75
2023-01-31T15:11:01.711Z,6.47
2023-01-31T15:12:57.148Z,7.47
2023-01-31T15:14:35.096Z,5.32
2023-01-31T15:15:55.157Z,5.94
2023-01-31T15:18:39.773Z,6.36
2023-01-31T15:20:11.481Z,7.09
2023-01-31T15:21:47.365Z,7.74
2023-01-31T15:23:15.443Z,7.14
2023-01-31T15:24:44.350Z,6.60
2023-01-31T15:26:06.024Z,7.78
2023-01-31T15:28:40.766Z,7.12
2023-01-31T15:31:37.016Z,6.38
2023-01-31T15:34:29.609Z,8.78
2023-01-31T15:35:55.862Z,6.37
2023-01-31T15:37:21.229Z,6.98
2023-01-31T15:38:54.486Z,7.06
2023-01-31T15:41:40.437Z,5.17
2023-01-31T15:44:34.665Z,5.14
2023-01-31T15:45:56.330Z,4.97
2023-01-31T15:47:21.793Z,4.82
2023-01-31T15:48:43.021Z,4.39
2023-01-31T15:50:15.720Z,4.62
2023-01-31T15:51:36.937Z,4.78
2023-01-31T16:11:10.663Z,8.42
2023-01-31T16:12:35.709Z,5.52
2023-01-31T16:16:42.910Z,5.48
2023-01-31T16:18:04.540Z,6.80
2023-01-31T16:20:52.717Z,8.19
2023-01-31T16:22:23.376Z,6.51
2023-01-31T16:23:44.785Z,6.01
2023-01-31T16:25:10.550Z,10.08
2023-01-31T16:26:34.076Z,6.89
2023-01-31T16:27:56.174Z,7.50
2023-01-31T16:29:19.064Z,6.99
2023-01-31T16:30:41.128Z,7.01
2023-01-31T16:32:02.496Z,9.61
2023-01-31T16:33:24.012Z,7.79
2023-01-31T16:34:47.553Z,7.06
2023-01-31T16:37:38.899Z,7.22
2023-01-31T16:39:03.100Z,8.03
2023-01-31T16:40:26.438Z,9.38
2023-01-31T16:41:48.915Z,6.31
2023-01-31T16:43:21.715Z,7.47
2023-01-31T16:44:44.890Z,7.34
2023-01-31T16:46:22.466Z,6.88
2023-01-31T16:47:46.325Z,7.18
2023-01-31T16:49:23.036Z,6.96
2023-01-31T16:50:44.299Z,8.06
2023-01-31T16:52:14.588Z,7.58
2023-01-31T16:53:36.177Z,7.28
2023-01-31T16:54:59.986Z,10.21
2023-01-31T16:56:21.412Z,7.38
2023-01-31T16:57:45.850Z,6.00
2023-01-31T16:59:26.942Z,6.06
2023-01-31T17:00:48.093Z,8.56
2023-01-31T17:02:13.930Z,9.02
2023-01-31T17:04:54.024Z,6.58
2023-01-31T17:06:20.426Z,9.64
2023-01-31T17:07:42.957Z,8.83
2023-01-31T17:09:06.166Z,7.97
2023-01-31T17:11:49.597Z,7.08
2023-01-31T17:13:24.692Z,6.67
2023-01-31T17:14:46.129Z,5.57
2023-01-31T17:17:35.244Z,7.85
2023-01-31T17:18:56.247Z,7.03
2023-01-31T17:20:19.886Z,6.28
2023-01-31T17:21:43.278Z,9.11
2023-01-31T17:24:25.058Z,6.51
2023-01-31T17:25:46.409Z,6.77
2023-01-31T17:30:33.479Z,9.47
2023-01-31T17:37:31.583Z,7.82
2023-01-31T17:38:47.781Z,8.82
2023-01-31T17:40:29.620Z,9.84
2023-01-31T17:41:57.417Z,10.31
2023-01-31T17:43:26.115Z,6.50
2023-01-31T17:44:51.421Z,8.36
2023-01-31T17:46:15.289Z,10.45
2023-01-31T17:47:40.895Z,6.98
2023-01-31T17:57:57.719Z,7.80
2023-01-31T17:59:26.832Z,8.06
2023-01-31T18:00:47.246Z,7.77
2023-01-31T18:02:10.193Z,8.54
2023-01-31T18:03:36.549Z,12.14
2023-01-31T18:07:05.933Z,10.19
2023-01-31T18:17:26.132Z,7.38
2023-01-31T18:29:48.918Z,10.31
2023-01-31T18:31:27.463Z,6.66
2023-01-31T18:32:54.281Z,8.22
2023-01-31T20:58:37.017Z,8.26
2023-01-31T20:59:58.457Z,11.25
2023-01-31T21:01:19.867Z,11.46
2023-01-31T21:02:41.420Z,10.67
2023-01-31T21:04:02.907Z,11.42
2023-01-31T21:05:24.379Z,12.21
2023-01-31T21:06:48.039Z,10.67
2023-01-31T21:08:09.053Z,11.53
2023-01-31T21:09:30.135Z,10.27
2023-01-31T21:10:52.551Z,10.27
2023-01-31T21:12:13.851Z,11.95
2023-01-31T21:13:35.446Z,15.47
2023-01-31T21:14:56.796Z,12.22
2023-01-31T21:16:18.179Z,10.97
2023-01-31T21:17:40.680Z,9.54
2023-01-31T21:19:01.931Z,9.72
2023-01-31T21:20:24.188Z,9.82
2023-01-31T21:21:45.611Z,11.97
2023-01-31T21:23:06.673Z,9.60
2023-01-31T21:24:28.098Z,13.51
2023-01-31T21:25:49.667Z,14.08
2023-01-31T21:27:11.207Z,11.19
2023-01-31T21:28:32.427Z,11.92
2023-01-31T21:29:53.839Z,11.98
2023-01-31T21:31:17.740Z,21.37
2023-01-31T21:32:38.968Z,23.00
2023-01-31T21:34:00.410Z,14.94
2023-01-31T21:35:21.465Z,13.34
2023-01-31T21:36:45.712Z,10.84
2023-01-31T21:38:06.277Z,11.26
2023-01-31T21:39:27.683Z,10.54
2023-01-31T21:40:49.519Z,9.17
2023-01-31T21:42:11.122Z,9.99
2023-01-31T21:43:32.431Z,9.14
2023-01-31T21:44:54.057Z,11.52
2023-01-31T21:46:15.427Z,7.81
2023-01-31T21:47:36.683Z,8.82
2023-01-31T21:48:58.811Z,10.68
2023-01-31T21:50:20.783Z,10.37
2023-01-31T21:51:42.364Z,9.89
2023-01-31T21:53:04.189Z,9.34
2023-01-31T21:54:25.500Z,14.34
2023-01-31T21:55:47.151Z,28.04
2023-01-31T21:57:08.453Z,18.98
2023-01-31T21:58:29.527Z,11.82
2023-01-31T21:59:50.960Z,14.02
2023-01-31T22:01:19.556Z,11.93
2023-01-31T22:02:41.880Z,9.65
2023-01-31T22:04:03.291Z,11.91
2023-01-31T22:05:24.556Z,9.92
2023-01-31T22:06:46.465Z,10.90
2023-01-31T22:08:07.801Z,9.18
2023-01-31T22:09:29.635Z,9.92
2023-01-31T22:11:03.761Z,10.32
2023-01-31T22:13:49.175Z,10.95
2023-01-31T22:15:11.125Z,9.56
2023-01-31T22:16:32.490Z,10.87
2023-01-31T22:17:55.179Z,12.56
2023-01-31T22:19:16.198Z,9.44
2023-01-31T22:20:37.859Z,10.12
2023-01-31T22:22:00.415Z,10.37
2023-01-31T22:23:21.863Z,13.27
2023-01-31T22:24:43.913Z,10.06
2023-01-31T22:26:07.316Z,9.28
2023-01-31T22:27:28.653Z,10.43
2023-01-31T22:28:50.105Z,9.19
2023-01-31T22:31:23.973Z,11.01
2023-01-31T22:32:45.100Z,10.87
2023-01-31T22:34:07.924Z,9.87
2023-01-31T22:35:30.123Z,8.98
2023-01-31T22:36:51.707Z,9.03
2023-01-31T22:38:13.039Z,9.91
2023-01-31T22:39:34.454Z,11.92
2023-01-31T22:42:15.549Z,10.76
2023-01-31T22:43:40.810Z,9.55
2023-01-31T22:52:09.091Z,12.13
2023-01-31T22:53:32.752Z,9.39
2023-01-31T22:55:03.357Z,6.88
2023-01-31T22:56:36.624Z,9.41
2023-01-31T22:57:58.065Z,8.84
2023-01-31T23:02:52.039Z,7.78
2023-01-31T23:04:24.619Z,7.28
2023-01-31T23:05:50.905Z,7.82
2023-01-31T23:07:13.414Z,8.13
2023-01-31T23:08:38.460Z,13.10
2023-01-31T23:11:49.322Z,9.66
2023-01-31T23:13:18.169Z,9.46
2023-01-31T23:14:45.736Z,7.61
2023-01-31T23:16:10.946Z,9.25
2023-01-31T23:19:34.540Z,7.95
2023-01-31T23:21:06.534Z,10.38
2023-01-31T23:22:29.949Z,10.14
2023-01-31T23:23:53.393Z,9.49
2023-01-31T23:28:51.977Z,9.77
2023-01-31T23:33:48.415Z,11.82
2023-01-31T23:35:13.874Z,12.88
2023-01-31T23:36:39.383Z,8.70
2023-01-31T23:38:01.066Z,9.53
2023-01-31T23:39:22.115Z,10.18
2023-01-31T23:40:43.592Z,10.93
2023-01-31T23:42:04.983Z,10.97
2023-01-31T23:43:30.773Z,8.49
2023-01-31T23:44:52.691Z,10.93
2023-01-31T23:46:14.530Z,8.69
2023-01-31T23:47:36.589Z,8.07
2023-01-31T23:48:57.861Z,9.14
2023-01-31T23:50:21.703Z,10.08
2023-01-31T23:51:43.503Z,10.42
2023-01-31T23:53:15.376Z,10.56
2023-01-31T23:54:40.724Z,8.34
2023-01-31T23:56:04.370Z,10.27
2023-01-31T23:57:25.767Z,8.11
2023-01-31T23:58:47.481Z,9.30
